aviador You're here:

VEPT Decoded Metar

PATINA in INDIA
Report Time2017-07-26 06:00:00
UTC Time2017-07-26 06:35:12
Flight Rules ifr IFR
Wind090° at 16 Gusting to 28 kt
W.Decomp.*RWY 07: 15.0 kt HW 5.5 kt RCW
W.Rank090° ranks 1
Current wind is above 090° avg. (5.9)
Visibility4000 m
Phenomena:Haze
Clouds:Scattered 015 Hf
Broken 100 Hf
Expected CloudBase > 2,000 ft AGL from Temp-Dew spread
Ceiling10,000 ft
Temp30°C (ISA +15)
Dew Point25°C (75% RH)
Heat Index36.3°C
QNH0997 hPa
Density Alt2,917 ft
Elevation197 ft
Report Wrong Elevation
Raw Report
METAR VEPT 260600Z 09016G28KT 4000 HZ SCT015 BKN100 30/25 Q0997
NOSIG=

Extra information for VEPT:More info

Metar Taf Metar & Taf Last 4 Metars F.Rules Stats Wind Profile Meteogram Temp Stats Airport Information Weather charts Add Link Nearby VenuesMetar ALERT Operation Metar Decoded Social comments